createdAt,value
2022-08-28T00:00:59.578Z,2.95
2022-08-28T00:11:21.564Z,3.42
2022-08-28T00:21:43.403Z,3.08
2022-08-28T00:32:05.533Z,3.03
2022-08-28T00:42:27.579Z,2.53
2022-08-28T00:52:55.050Z,2.92
2022-08-28T01:03:16.823Z,3.10
2022-08-28T01:13:41.513Z,2.75
2022-08-28T01:24:09.112Z,3.20
2022-08-28T01:34:31.550Z,2.83
2022-08-28T01:44:54.273Z,2.60
2022-08-28T01:55:15.953Z,1.90
2022-08-28T02:05:43.105Z,2.53
2022-08-28T02:16:07.170Z,2.50
2022-08-28T02:26:30.214Z,2.42
2022-08-28T02:36:51.791Z,2.47
2022-08-28T02:57:37.090Z,2.35
2022-08-28T03:07:59.029Z,1.90
2022-08-28T03:18:20.887Z,2.47
2022-08-28T03:28:50.781Z,2.10
2022-08-28T03:39:13.838Z,2.33
2022-08-28T03:49:35.419Z,1.92
2022-08-28T03:59:56.979Z,2.08
2022-08-28T04:10:18.503Z,1.77
2022-08-28T04:20:40.060Z,2.28
2022-08-28T04:31:01.804Z,1.85
2022-08-28T04:41:23.351Z,1.90
2022-08-28T04:51:44.973Z,1.85
2022-08-28T05:02:08.569Z,2.50
2022-08-28T05:12:30.100Z,2.75
2022-08-28T05:22:51.616Z,2.30
2022-08-28T05:33:14.806Z,2.55
2022-08-28T05:43:36.848Z,2.08
2022-08-28T05:53:58.642Z,2.00
2022-08-28T06:04:25.442Z,1.80
2022-08-28T06:14:47.204Z,2.58
2022-08-28T06:25:11.113Z,2.17
2022-08-28T06:35:34.080Z,2.20
2022-08-28T06:45:57.641Z,2.15
2022-08-28T06:56:26.117Z,1.85
2022-08-28T07:06:54.824Z,2.28
2022-08-28T07:17:16.600Z,1.65
2022-08-28T07:27:38.412Z,2.17
2022-08-28T07:37:59.937Z,2.25
2022-08-28T07:48:22.139Z,2.10
2022-08-28T07:58:43.810Z,1.60
2022-08-28T08:09:07.314Z,1.85
2022-08-28T08:19:28.944Z,2.03
2022-08-28T08:29:50.997Z,1.80
2022-08-28T08:40:19.055Z,2.05
2022-08-28T08:50:41.383Z,1.70
2022-08-28T09:01:23.757Z,1.92
2022-08-28T09:11:56.536Z,2.00
2022-08-28T09:22:19.528Z,1.77
2022-08-28T09:32:45.106Z,2.10
2022-08-28T09:43:31.358Z,2.25
2022-08-28T09:53:53.521Z,1.80
2022-08-28T10:04:36.765Z,1.95
2022-08-28T10:15:16.539Z,1.90
2022-08-28T10:25:52.241Z,1.80
2022-08-28T10:36:34.561Z,1.65
2022-08-28T10:46:58.793Z,1.90
2022-08-28T10:57:53.018Z,1.70
2022-08-28T11:08:29.412Z,1.90
2022-08-28T11:19:10.080Z,2.00
2022-08-28T11:30:06.864Z,2.10
2022-08-28T11:40:29.980Z,2.20
2022-08-28T11:51:02.574Z,2.30
2022-08-28T12:01:36.171Z,2.30
2022-08-28T12:12:21.772Z,2.10
2022-08-28T12:22:54.081Z,2.25
2022-08-28T12:33:46.144Z,2.08
2022-08-28T12:44:12.331Z,2.45
2022-08-28T12:54:35.460Z,2.40
2022-08-28T13:05:10.585Z,2.65
2022-08-28T13:16:11.864Z,2.40
2022-08-28T13:26:35.978Z,2.80
2022-08-28T13:37:07.237Z,2.80
2022-08-28T13:47:37.002Z,4.00
2022-08-28T13:57:58.903Z,3.47
2022-08-28T14:08:20.731Z,3.95
2022-08-28T14:18:42.320Z,3.88
2022-08-28T14:29:07.731Z,4.45
2022-08-28T14:39:31.014Z,3.85
2022-08-28T14:49:52.696Z,4.00
2022-08-28T15:00:16.471Z,3.40
2022-08-28T15:10:39.854Z,2.90
2022-08-28T15:21:01.690Z,3.28
2022-08-28T15:31:24.680Z,2.63
2022-08-28T15:41:47.115Z,3.22
2022-08-28T15:52:08.706Z,2.55
2022-08-28T16:02:30.517Z,2.30
2022-08-28T16:12:57.444Z,2.45
2022-08-28T16:23:19.354Z,2.22
2022-08-28T16:33:41.167Z,2.30
2022-08-28T16:44:02.964Z,2.38
2022-08-28T16:54:24.522Z,2.00
2022-08-28T17:04:46.047Z,2.10
2022-08-28T17:15:09.022Z,2.33
2022-08-28T17:25:33.003Z,2.13
2022-08-28T17:35:55.676Z,1.65
2022-08-28T17:46:18.445Z,2.47
2022-08-28T17:56:41.132Z,2.40
2022-08-28T18:07:02.771Z,2.22
2022-08-28T18:17:25.519Z,2.40
2022-08-28T18:27:47.089Z,2.45
2022-08-28T18:38:09.372Z,2.33
2022-08-28T18:48:31.633Z,2.53
2022-08-28T18:58:53.627Z,2.50
2022-08-28T19:09:20.491Z,2.25
2022-08-28T19:19:42.405Z,2.75
2022-08-28T19:30:10.362Z,2.40
2022-08-28T19:40:33.717Z,2.17
2022-08-28T19:51:06.366Z,2.40
2022-08-28T20:01:44.899Z,2.53
2022-08-28T20:12:06.566Z,2.28
2022-08-28T20:22:28.767Z,2.30
2022-08-28T20:32:50.341Z,2.45
2022-08-28T20:43:12.011Z,2.70
2022-08-28T20:53:37.385Z,2.55
2022-08-28T21:03:59.889Z,1.98
2022-08-28T21:14:21.635Z,2.10
2022-08-28T21:24:43.160Z,2.63
2022-08-28T21:35:06.823Z,2.38
2022-08-28T21:45:28.516Z,2.60
2022-08-28T21:55:51.586Z,2.10
2022-08-28T22:06:19.409Z,2.50
2022-08-28T22:16:41.042Z,2.42
2022-08-28T22:27:02.609Z,2.60
2022-08-28T22:37:25.789Z,2.50
2022-08-28T22:47:51.311Z,2.42
2022-08-28T22:58:12.988Z,2.83
2022-08-28T23:08:35.375Z,2.53
2022-08-28T23:19:09.096Z,2.45
2022-08-28T23:29:31.881Z,2.27
2022-08-28T23:39:54.515Z,2.78
2022-08-28T23:50:19.567Z,2.20
